Time,TemperatureF,DewpointF,PressureIn,WindDirection,WindDirectionDegrees,WindSpeedMPH,WindSpeedGustMPH,Humidity,HourlyPrecipIn,Conditions,Clouds,dailyrainin,SoftwareType,DateUTC
2013-01-11 00:02:00,37.0,20.0,30.32,WNW,300,4.0,8.0,49,0.00,,,-99.99,,2013-01-11 08:02:00,
2013-01-11 00:12:00,37.0,20.0,30.33,WNW,300,5.0,14.0,50,0.00,,,-99.99,,2013-01-11 08:12:00,
2013-01-11 00:22:00,37.0,20.0,30.33,WNW,300,5.0,14.0,50,0.00,,,-99.99,,2013-01-11 08:22:00,
2013-01-11 00:32:00,36.0,20.0,30.31,North,-999,0.0,0.0,51,0.00,,,-99.99,,2013-01-11 08:32:00,
2013-01-11 00:42:00,36.0,19.0,30.33,North,0,0.0,13.0,50,0.00,,,-99.99,,2013-01-11 08:42:00,
2013-01-11 00:52:00,36.0,19.0,30.33,North,0,0.0,13.0,50,0.00,,,-99.99,,2013-01-11 08:52:00,
2013-01-11 01:02:00,36.0,20.0,30.34,WNW,290,3.0,5.0,51,0.00,,,-99.99,,2013-01-11 09:02:00,
2013-01-11 01:12:00,36.0,19.0,30.34,WNW,290,4.0,13.0,50,0.00,,,-99.99,,2013-01-11 09:12:00,
2013-01-11 01:22:00,36.0,19.0,30.34,WNW,290,4.0,13.0,50,0.00,,,-99.99,,2013-01-11 09:22:00,
2013-01-11 01:32:00,36.0,19.0,30.34,WNW,290,4.0,13.0,50,0.00,,,-99.99,,2013-01-11 09:32:00,
2013-01-11 01:42:00,36.0,19.0,30.34,WNW,290,4.0,13.0,50,0.00,,,-99.99,,2013-01-11 09:42:00,
2013-01-11 02:02:00,35.0,19.0,30.35,WNW,300,6.0,9.0,51,0.00,,,-99.99,,2013-01-11 10:02:00,
2013-01-11 02:12:00,35.0,19.0,30.36,WNW,290,3.0,10.0,51,0.00,,,-99.99,,2013-01-11 10:12:00,
2013-01-11 02:22:00,35.0,19.0,30.36,WNW,290,3.0,10.0,51,0.00,,,-99.99,,2013-01-11 10:22:00,
2013-01-11 02:32:00,35.0,19.0,30.36,WNW,290,4.0,6.0,52,0.00,,,-99.99,,2013-01-11 10:32:00,
2013-01-11 02:42:00,35.0,19.0,30.36,WNW,290,6.0,12.0,52,0.00,,,-99.99,,2013-01-11 10:42:00,
2013-01-11 02:52:00,35.0,19.0,30.36,WNW,290,6.0,12.0,52,0.00,,,-99.99,,2013-01-11 10:52:00,
2013-01-11 03:02:00,35.0,20.0,30.38,West,280,2.0,2.0,53,0.00,,,-99.99,,2013-01-11 11:02:00,
2013-01-11 03:12:00,34.0,20.0,30.39,West,280,5.0,8.0,56,0.00,,,-99.99,,2013-01-11 11:12:00,
2013-01-11 03:22:00,34.0,20.0,30.39,West,280,5.0,8.0,56,0.00,,,-99.99,,2013-01-11 11:22:00,
2013-01-11 03:32:00,34.0,20.0,30.39,West,280,6.0,6.0,55,0.00,,,-99.99,,2013-01-11 11:32:00,
2013-01-11 03:42:00,34.0,19.0,30.39,West,280,4.0,9.0,53,0.00,,,-99.99,,2013-01-11 11:42:00,
2013-01-11 03:53:00,34.0,19.0,30.39,West,280,4.0,9.0,53,0.00,,,-99.99,,2013-01-11 11:53:00,
2013-01-11 04:02:00,34.0,20.0,30.39,West,280,5.0,6.0,56,0.00,,,-99.99,,2013-01-11 12:02:00,
2013-01-11 04:12:00,34.0,20.0,30.39,West,270,1.0,8.0,56,0.00,,,-99.99,,2013-01-11 12:12:00,
2013-01-11 04:22:00,34.0,20.0,30.39,West,270,1.0,8.0,56,0.00,,,-99.99,,2013-01-11 12:22:00,
2013-01-11 04:32:00,34.0,19.0,30.39,West,270,6.0,6.0,54,0.00,,,-99.99,,2013-01-11 12:32:00,
2013-01-11 04:42:00,34.0,19.0,30.39,West,270,1.0,6.0,54,0.00,,,-99.99,,2013-01-11 12:42:00,
2013-01-11 04:53:00,34.0,19.0,30.39,West,270,1.0,6.0,54,0.00,,,-99.99,,2013-01-11 12:53:00,
2013-01-11 05:02:00,34.0,19.0,30.40,West,280,2.0,3.0,53,0.00,,,-99.99,,2013-01-11 13:02:00,
2013-01-11 05:12:00,34.0,19.0,30.40,West,280,2.0,3.0,53,0.00,,,-99.99,,2013-01-11 13:12:00,
2013-01-11 05:22:00,34.0,19.0,30.40,West,280,3.0,6.0,54,0.00,,,-99.99,,2013-01-11 13:22:00,
2013-01-11 05:32:00,35.0,20.0,30.41,WNW,290,2.0,3.0,55,0.00,,,-99.99,,2013-01-11 13:32:00,
2013-01-11 05:42:00,35.0,20.0,30.41,WNW,290,2.0,3.0,55,0.00,,,-99.99,,2013-01-11 13:42:00,
2013-01-11 05:53:00,35.0,20.0,30.41,WNW,290,2.0,3.0,55,0.00,,,-99.99,,2013-01-11 13:53:00,
2013-01-11 06:03:00,34.0,22.0,30.42,West,280,1.0,3.0,60,0.00,,,-99.99,,2013-01-11 14:03:00,
2013-01-11 06:12:00,34.0,22.0,30.42,North,0,0.0,6.0,60,0.00,,,-99.99,,2013-01-11 14:12:00,
2013-01-11 06:22:00,34.0,22.0,30.42,North,0,0.0,6.0,60,0.00,,,-99.99,,2013-01-11 14:22:00,
2013-01-11 06:33:00,34.0,22.0,30.43,West,270,3.0,7.0,60,0.00,,,-99.99,,2013-01-11 14:33:00,
2013-01-11 06:42:00,34.0,21.0,30.43,West,270,4.0,8.0,58,0.00,,,-99.99,,2013-01-11 14:42:00,
2013-01-11 06:53:00,34.0,21.0,30.43,West,270,4.0,8.0,58,0.00,,,-99.99,,2013-01-11 14:53:00,
2013-01-11 07:03:00,34.0,21.0,30.43,West,270,1.0,3.0,59,0.00,,,-99.99,,2013-01-11 15:03:00,
2013-01-11 07:12:00,34.0,21.0,30.44,West,270,3.0,7.0,59,0.00,,,-99.99,,2013-01-11 15:12:00,
2013-01-11 07:23:00,34.0,21.0,30.44,West,270,3.0,7.0,59,0.00,,,-99.99,,2013-01-11 15:23:00,
2013-01-11 07:32:00,34.0,21.0,30.44,West,270,2.0,4.0,59,0.00,,,-99.99,,2013-01-11 15:32:00,
2013-01-11 07:42:00,34.0,21.0,30.44,West,280,6.0,9.0,59,0.00,,,-99.99,,2013-01-11 15:42:00,
2013-01-11 07:53:00,34.0,21.0,30.44,West,280,6.0,9.0,59,0.00,,,-99.99,,2013-01-11 15:53:00,
2013-01-11 08:02:00,35.0,22.0,30.44,West,280,3.0,9.0,59,0.00,,,-99.99,,2013-01-11 16:02:00,
2013-01-11 08:12:00,34.0,22.0,30.44,West,280,1.0,9.0,60,0.00,,,-99.99,,2013-01-11 16:12:00,
2013-01-11 08:22:00,34.0,22.0,30.44,West,280,1.0,9.0,60,0.00,,,-99.99,,2013-01-11 16:22:00,
2013-01-11 08:32:00,34.0,22.0,30.44,North,0,0.0,5.0,60,0.00,,,-99.99,,2013-01-11 16:32:00,
2013-01-11 08:42:00,35.0,22.0,30.45,North,0,0.0,9.0,58,0.00,,,-99.99,,2013-01-11 16:42:00,
2013-01-11 08:53:00,35.0,22.0,30.45,North,0,0.0,9.0,58,0.00,,,-99.99,,2013-01-11 16:53:00,
2013-01-11 09:03:00,35.0,21.0,30.46,WNW,290,2.0,4.0,56,0.00,,,-99.99,,2013-01-11 17:03:00,
2013-01-11 09:12:00,36.0,22.0,30.46,WNW,290,1.0,6.0,57,0.00,,,-99.99,,2013-01-11 17:12:00,
2013-01-11 09:22:00,36.0,22.0,30.46,WNW,290,1.0,6.0,57,0.00,,,-99.99,,2013-01-11 17:22:00,
2013-01-11 09:33:00,36.0,22.0,30.46,North,0,0.0,3.0,56,0.00,,,-99.99,,2013-01-11 17:33:00,
2013-01-11 09:42:00,36.0,22.0,30.46,North,0,0.0,3.0,56,0.00,,,-99.99,,2013-01-11 17:42:00,
2013-01-11 09:53:00,36.0,21.0,30.46,North,0,0.0,6.0,55,0.00,,,-99.99,,2013-01-11 17:53:00,
2013-01-11 10:03:00,37.0,22.0,30.47,North,0,0.0,1.0,55,0.00,,,-99.99,,2013-01-11 18:03:00,
2013-01-11 10:12:00,38.0,23.0,30.47,West,270,1.0,6.0,54,0.00,,,-99.99,,2013-01-11 18:12:00,
2013-01-11 10:23:00,38.0,23.0,30.47,West,270,1.0,6.0,54,0.00,,,-99.99,,2013-01-11 18:23:00,
2013-01-11 10:32:00,38.0,22.0,30.47,West,260,5.0,5.0,51,0.00,,,-99.99,,2013-01-11 18:32:00,
2013-01-11 10:42:00,39.0,21.0,30.47,North,0,0.0,5.0,48,0.00,,,-99.99,,2013-01-11 18:42:00,
2013-01-11 10:53:00,39.0,21.0,30.47,North,0,0.0,5.0,48,0.00,,,-99.99,,2013-01-11 18:53:00,
2013-01-11 11:02:00,39.0,22.0,30.45,North,0,0.0,1.0,50,0.00,,,-99.99,,2013-01-11 19:02:00,
2013-01-11 11:12:00,40.0,22.0,30.45,West,270,1.0,4.0,48,0.00,,,-99.99,,2013-01-11 19:12:00,
2013-01-11 11:22:00,40.0,22.0,30.45,West,270,1.0,4.0,48,0.00,,,-99.99,,2013-01-11 19:22:00,
2013-01-11 11:32:00,40.0,23.0,30.44,West,270,1.0,1.0,50,0.00,,,-99.99,,2013-01-11 19:32:00,
2013-01-11 11:42:00,40.0,22.0,30.43,North,0,0.0,7.0,49,0.00,,,-99.99,,2013-01-11 19:42:00,
2013-01-11 11:53:00,40.0,22.0,30.43,North,0,0.0,7.0,49,0.00,,,-99.99,,2013-01-11 19:53:00,
2013-01-11 12:02:00,40.0,22.0,30.42,North,0,0.0,1.0,48,0.00,,,-99.99,,2013-01-11 20:02:00,
2013-01-11 12:12:00,40.0,22.0,30.42,North,0,0.0,5.0,48,0.00,,,-99.99,,2013-01-11 20:12:00,
2013-01-11 12:22:00,40.0,22.0,30.42,North,0,0.0,5.0,48,0.00,,,-99.99,,2013-01-11 20:22:00,
2013-01-11 12:32:00,41.0,22.0,30.40,North,-999,0.0,0.0,46,0.00,,,-99.99,,2013-01-11 20:32:00,
2013-01-11 12:43:00,41.0,23.0,30.40,West,280,2.0,8.0,48,0.00,,,-99.99,,2013-01-11 20:43:00,
2013-01-11 12:53:00,41.0,23.0,30.40,West,280,2.0,8.0,48,0.00,,,-99.99,,2013-01-11 20:53:00,
2013-01-11 13:03:00,42.0,22.0,30.39,West,270,5.0,7.0,44,0.00,,,-99.99,,2013-01-11 21:03:00,
2013-01-11 13:12:00,43.0,23.0,30.39,West,260,3.0,10.0,44,0.00,,,-99.99,,2013-01-11 21:12:00,
2013-01-11 13:23:00,43.0,23.0,30.39,West,260,3.0,10.0,44,0.00,,,-99.99,,2013-01-11 21:23:00,
2013-01-11 13:32:00,43.0,23.0,30.38,West,260,1.0,5.0,44,0.00,,,-99.99,,2013-01-11 21:32:00,
2013-01-11 13:42:00,43.0,23.0,30.38,West,260,1.0,5.0,44,0.00,,,-99.99,,2013-01-11 21:42:00,
2013-01-11 13:53:00,43.0,23.0,30.38,West,260,1.0,5.0,44,0.00,,,-99.99,,2013-01-11 21:53:00,
2013-01-11 14:02:00,43.0,17.0,30.37,West,270,5.0,5.0,34,0.00,,,-99.99,,2013-01-11 22:02:00,
2013-01-11 14:12:00,43.0,17.0,30.37,West,270,5.0,5.0,34,0.00,,,-99.99,,2013-01-11 22:12:00,
2013-01-11 14:22:00,43.0,17.0,30.37,West,270,5.0,5.0,34,0.00,,,-99.99,,2013-01-11 22:22:00,
2013-01-11 14:33:00,43.0,17.0,30.34,West,270,1.0,5.0,35,0.00,,,-99.99,,2013-01-11 22:33:00,
2013-01-11 14:42:00,41.0,15.0,30.35,West,280,11.0,19.0,34,0.00,,,-99.99,,2013-01-11 22:42:00,
2013-01-11 14:53:00,41.0,15.0,30.35,West,280,11.0,19.0,34,0.00,,,-99.99,,2013-01-11 22:53:00,
2013-01-11 15:00:00,43.0,15.0,30.36,WNW,290,9.0,12.0,32,0.00,,,-99.99,,2013-01-11 23:00:00,
2013-01-11 15:02:00,42.0,15.0,30.34,West,280,5.0,8.0,33,0.00,,,-99.99,,2013-01-11 23:02:00,
2013-01-11 15:12:00,42.0,15.0,30.35,WNW,290,2.0,16.0,33,0.00,,,-99.99,,2013-01-11 23:12:00,
2013-01-11 15:22:00,42.0,15.0,30.35,WNW,290,2.0,16.0,33,0.00,,,-99.99,,2013-01-11 23:22:00,
2013-01-11 15:32:00,43.0,15.0,30.36,WNW,290,9.0,12.0,32,0.00,,,-99.99,,2013-01-11 23:32:00,
2013-01-11 15:42:00,43.0,15.0,30.36,WNW,290,9.0,12.0,32,0.00,,,-99.99,,2013-01-11 23:42:00,
2013-01-11 15:53:00,43.0,15.0,30.36,WNW,290,9.0,12.0,32,0.00,,,-99.99,,2013-01-11 23:53:00,
2013-01-11 16:22:00,41.0,15.0,30.36,WNW,290,6.0,14.0,34,0.00,,,-99.99,,2013-01-12 00:22:00,
2013-01-11 16:32:00,41.0,16.0,30.36,WNW,290,6.0,11.0,36,0.00,,,-99.99,,2013-01-12 00:32:00,
2013-01-11 16:42:00,41.0,17.0,30.36,North,0,0.0,11.0,38,0.00,,,-99.99,,2013-01-12 00:42:00,
2013-01-11 16:53:00,41.0,17.0,30.36,North,0,0.0,11.0,38,0.00,,,-99.99,,2013-01-12 00:53:00,
2013-01-11 17:02:00,41.0,17.0,30.36,North,0,0.0,11.0,38,0.00,,,-99.99,,2013-01-12 01:02:00,
2013-01-11 17:12:00,41.0,17.0,30.36,North,0,0.0,11.0,38,0.00,,,-99.99,,2013-01-12 01:12:00,
2013-01-11 17:52:00,38.0,17.0,30.36,West,280,10.0,16.0,42,0.00,,,-99.99,,2013-01-12 01:52:00,
2013-01-11 18:02:00,38.0,18.0,30.36,West,280,10.0,10.0,43,0.00,,,-99.99,,2013-01-12 02:02:00,
2013-01-11 18:12:00,37.0,19.0,30.36,West,280,2.0,16.0,47,0.00,,,-99.99,,2013-01-12 02:12:00,
2013-01-11 18:22:00,37.0,19.0,30.36,West,280,2.0,16.0,47,0.00,,,-99.99,,2013-01-12 02:22:00,
2013-01-11 18:32:00,37.0,19.0,30.36,West,280,2.0,16.0,47,0.00,,,-99.99,,2013-01-12 02:32:00,
2013-01-11 18:42:00,37.0,21.0,30.36,West,270,6.0,13.0,51,0.00,,,-99.99,,2013-01-12 02:42:00,
2013-01-11 18:53:00,37.0,21.0,30.36,West,270,6.0,13.0,51,0.00,,,-99.99,,2013-01-12 02:53:00,
2013-01-11 19:02:00,37.0,21.0,30.36,West,270,4.0,7.0,51,0.00,,,-99.99,,2013-01-12 03:02:00,
2013-01-11 19:12:00,37.0,21.0,30.36,West,270,4.0,7.0,51,0.00,,,-99.99,,2013-01-12 03:12:00,
2013-01-11 19:22:00,37.0,21.0,30.36,West,270,4.0,7.0,51,0.00,,,-99.99,,2013-01-12 03:22:00,
2013-01-11 19:32:00,37.0,21.0,30.36,West,270,7.0,11.0,51,0.00,,,-99.99,,2013-01-12 03:32:00,
2013-01-11 19:43:00,37.0,21.0,30.37,West,270,2.0,14.0,51,0.00,,,-99.99,,2013-01-12 03:43:00,
2013-01-11 19:53:00,37.0,21.0,30.37,West,270,2.0,14.0,51,0.00,,,-99.99,,2013-01-12 03:53:00,
2013-01-11 20:02:00,37.0,21.0,30.37,West,260,3.0,4.0,53,0.00,,,-99.99,,2013-01-12 04:02:00,
2013-01-11 20:12:00,36.0,21.0,30.36,West,260,2.0,11.0,54,0.00,,,-99.99,,2013-01-12 04:12:00,
2013-01-11 20:22:00,36.0,21.0,30.36,West,260,2.0,11.0,54,0.00,,,-99.99,,2013-01-12 04:22:00,
2013-01-11 20:32:00,36.0,22.0,30.37,West,260,3.0,8.0,56,0.00,,,-99.99,,2013-01-12 04:32:00,
2013-01-11 20:42:00,36.0,22.0,30.38,West,260,1.0,12.0,57,0.00,,,-99.99,,2013-01-12 04:42:00,
2013-01-11 20:52:00,36.0,22.0,30.38,West,260,1.0,12.0,57,0.00,,,-99.99,,2013-01-12 04:52:00,
2013-01-11 21:03:00,36.0,23.0,30.38,West,260,3.0,3.0,58,0.00,,,-99.99,,2013-01-12 05:03:00,
2013-01-11 21:12:00,36.0,23.0,30.37,West,260,2.0,9.0,59,0.00,,,-99.99,,2013-01-12 05:12:00,
2013-01-11 21:22:00,36.0,23.0,30.37,West,260,2.0,9.0,59,0.00,,,-99.99,,2013-01-12 05:22:00,
2013-01-11 21:32:00,36.0,23.0,30.38,West,260,2.0,2.0,60,0.00,,,-99.99,,2013-01-12 05:32:00,
2013-01-11 21:42:00,36.0,23.0,30.38,West,270,4.0,7.0,59,0.00,,,-99.99,,2013-01-12 05:42:00,
2013-01-11 21:52:00,36.0,23.0,30.38,West,270,4.0,7.0,59,0.00,,,-99.99,,2013-01-12 05:52:00,
2013-01-11 22:02:00,36.0,23.0,30.39,West,270,1.0,6.0,58,0.00,,,-99.99,,2013-01-12 06:02:00,
2013-01-11 22:12:00,36.0,23.0,30.39,West,270,2.0,8.0,58,0.00,,,-99.99,,2013-01-12 06:12:00,
2013-01-11 22:22:00,36.0,23.0,30.39,West,270,2.0,8.0,58,0.00,,,-99.99,,2013-01-12 06:22:00,
2013-01-11 22:32:00,36.0,23.0,30.39,West,270,3.0,5.0,59,0.00,,,-99.99,,2013-01-12 06:32:00,
2013-01-11 22:42:00,36.0,23.0,30.39,West,270,4.0,9.0,60,0.00,,,-99.99,,2013-01-12 06:42:00,
2013-01-11 22:52:00,36.0,23.0,30.39,West,270,4.0,9.0,60,0.00,,,-99.99,,2013-01-12 06:52:00,
2013-01-11 23:02:00,36.0,23.0,30.39,West,260,4.0,9.0,60,0.00,,,-99.99,,2013-01-12 07:02:00,
2013-01-11 23:12:00,36.0,24.0,30.38,West,260,2.0,10.0,61,0.00,,,-99.99,,2013-01-12 07:12:00,
2013-01-11 23:22:00,36.0,24.0,30.38,West,260,2.0,10.0,61,0.00,,,-99.99,,2013-01-12 07:22:00,
2013-01-11 23:32:00,36.0,24.0,30.38,West,260,1.0,5.0,61,0.00,,,-99.99,,2013-01-12 07:32:00,
2013-01-11 23:42:00,36.0,24.0,30.37,West,260,5.0,10.0,61,0.00,,,-99.99,,2013-01-12 07:42:00,
2013-01-11 23:52:00,36.0,24.0,30.37,West,260,5.0,10.0,61,0.00,,,-99.99,,2013-01-12 07:52:00,